Time;durP1;ratioP1;P1;durP2;ratioP2;P2;SDS_P1;SDS_P2;PMS_P1;PMS_P2;Temp;Humidity;BMP_temperature;BMP_pressure;BME280_temperature;BME280_humidity;BME280_pressure;Samples;Min_cycle;Max_cycle;Signal;HPM_P1;HPM_P2
2023/04/07 00:01:35;;;;;;;10.15;5.60;;;5.90;45.00;;;;;;5075340;28;20190;-72
2023/04/07 00:04:02;;;;;;;8.88;5.82;;;6.00;44.90;;;;;;5074952;28;20243;-72
2023/04/07 00:06:30;;;;;;;7.53;4.70;;;6.00;45.10;;;;;;5073902;28;20186;-72
2023/04/07 00:08:58;;;;;;;6.88;3.92;;;6.10;45.00;;;;;;5073990;28;20218;-72
2023/04/07 00:11:28;;;;;;;12.75;5.10;;;6.10;44.50;;;;;;5075385;28;20586;-73
2023/04/07 00:13:55;;;;;;;6.30;4.00;;;6.20;44.10;;;;;;5074561;28;20733;-71
2023/04/07 00:16:22;;;;;;;6.00;3.72;;;6.40;43.90;;;;;;5073780;28;20633;-72
2023/04/07 00:18:50;;;;;;;8.60;4.80;;;6.50;43.70;;;;;;5074235;28;20641;-72
2023/04/07 00:21:17;;;;;;;7.30;4.00;;;6.50;43.80;;;;;;5075060;28;20190;-72
2023/04/07 00:23:44;;;;;;;6.22;4.15;;;6.60;43.60;;;;;;5075285;28;20294;-73
2023/04/07 00:26:12;;;;;;;6.80;3.97;;;6.70;43.30;;;;;;5072495;28;20199;-72
2023/04/07 00:28:40;;;;;;;8.90;4.40;;;6.80;42.60;;;;;;5074735;28;20190;-72
2023/04/07 00:31:07;;;;;;;7.38;4.93;;;6.80;42.30;;;;;;5074474;28;20197;-72
2023/04/07 00:33:34;;;;;;;8.30;4.30;;;6.90;42.20;;;;;;5075019;28;20536;-72
2023/04/07 00:36:01;;;;;;;7.25;4.22;;;6.90;42.00;;;;;;5073509;28;20178;-72
2023/04/07 00:38:28;;;;;;;6.28;4.15;;;7.00;41.80;;;;;;5074287;28;20236;-72
2023/04/07 00:40:58;;;;;;;6.53;4.30;;;7.00;41.90;;;;;;5072611;28;20263;-72
2023/04/07 00:43:27;;;;;;;7.95;4.90;;;7.10;42.10;;;;;;5074370;28;20272;-72
2023/04/07 00:45:54;;;;;;;6.40;4.47;;;7.10;42.20;;;;;;5073756;28;20181;-73
2023/04/07 00:48:22;;;;;;;8.40;4.80;;;7.20;42.50;;;;;;5074699;28;20201;-72
2023/04/07 00:50:49;;;;;;;6.43;4.20;;;7.20;42.40;;;;;;5074185;28;20193;-72
2023/04/07 00:53:16;;;;;;;7.05;4.10;;;7.30;42.60;;;;;;5074414;28;20194;-72
2023/04/07 00:55:44;;;;;;;6.40;3.85;;;7.30;42.80;;;;;;5073299;28;20198;-72
2023/04/07 00:58:13;;;;;;;5.53;3.55;;;7.30;42.90;;;;;;5074742;28;20189;-72
2023/04/07 01:00:48;;;;;;;7.82;3.90;;;7.30;43.00;;;;;;5073336;28;20637;-72
2023/04/07 01:03:20;;;;;;;6.90;4.45;;;7.40;42.90;;;;;;5074095;28;20235;-72
2023/04/07 01:06:03;;;;;;;6.60;4.53;;;7.40;43.00;;;;;;5072489;28;20192;-73
2023/04/07 01:08:34;;;;;;;6.28;4.38;;;7.40;43.10;;;;;;5073911;28;20275;-72
2023/04/07 01:11:08;;;;;;;8.20;4.70;;;7.40;43.20;;;;;;5073171;28;20546;-72
2023/04/07 01:13:43;;;;;;;5.85;4.43;;;7.40;43.20;;;;;;5074097;28;20192;-72
2023/04/07 01:16:19;;;;;;;5.60;3.60;;;7.40;42.80;;;;;;5072464;28;20244;-73
2023/04/07 01:18:50;;;;;;;9.57;5.05;;;7.50;43.20;;;;;;5073974;28;20181;-72
2023/04/07 01:21:19;;;;;;;5.05;3.55;;;7.50;43.30;;;;;;5073141;28;20189;-72
2023/04/07 01:24:12;;;;;;;7.18;4.05;;;7.40;43.70;;;;;;5073695;28;20190;-73
2023/04/07 01:26:41;;;;;;;7.28;3.95;;;7.50;44.00;;;;;;5071649;28;20644;-72
2023/04/07 01:29:23;;;;;;;6.63;4.00;;;7.50;44.30;;;;;;5073535;28;20194;-72
2023/04/07 01:31:51;;;;;;;7.53;4.30;;;7.50;44.30;;;;;;5073356;28;20284;-72
2023/04/07 01:34:19;;;;;;;8.93;5.20;;;7.40;44.60;;;;;;5073896;28;20276;-72
2023/04/07 01:36:48;;;;;;;7.13;5.30;;;7.40;45.10;;;;;;5070123;28;20193;-72
2023/04/07 01:39:16;;;;;;;8.50;5.03;;;7.40;46.00;;;;;;5058097;28;20768;-72
2023/04/07 01:41:44;;;;;;;8.57;5.43;;;7.40;46.30;;;;;;5063544;28;20204;-72
2023/04/07 01:44:12;;;;;;;5.63;4.03;;;7.40;45.60;;;;;;5073148;28;20190;-72
2023/04/07 01:46:40;;;;;;;7.05;4.47;;;7.40;45.60;;;;;;5072260;28;20268;-72
2023/04/07 01:49:08;;;;;;;9.40;5.47;;;7.40;45.30;;;;;;5073414;28;20275;-72
2023/04/07 01:51:35;;;;;;;6.68;4.35;;;7.40;44.80;;;;;;5072387;28;20255;-72
2023/04/07 01:54:04;;;;;;;7.03;4.03;;;7.40;44.90;;;;;;5073355;28;20651;-72
2023/04/07 01:56:31;;;;;;;7.80;4.15;;;7.40;45.40;;;;;;5072460;28;20211;-72
2023/04/07 01:58:58;;;;;;;10.32;4.90;;;7.40;46.20;;;;;;5072905;28;20186;-72
2023/04/07 02:01:25;;;;;;;7.10;4.70;;;7.40;46.60;;;;;;5072570;28;20218;-72
2023/04/07 02:04:03;;;;;;;6.57;4.65;;;7.30;46.40;;;;;;5071234;28;20193;-72
2023/04/07 02:06:34;;;;;;;6.43;4.30;;;7.30;46.40;;;;;;5072570;28;20174;-72
2023/04/07 02:09:11;;;;;;;7.82;4.90;;;7.30;46.70;;;;;;5073085;28;20245;-72
2023/04/07 02:11:39;;;;;;;9.20;5.60;;;7.30;46.70;;;;;;5072620;28;20525;-72
2023/04/07 02:14:09;;;;;;;6.95;4.20;;;7.30;46.90;;;;;;5072945;28;20193;-72
2023/04/07 02:16:37;;;;;;;5.55;4.13;;;7.30;47.40;;;;;;5072378;28;20254;-72
2023/04/07 02:19:06;;;;;;;6.95;4.20;;;7.30;47.70;;;;;;5072436;28;20202;-72
2023/04/07 02:21:34;;;;;;;6.97;3.75;;;7.30;48.10;;;;;;5072321;28;20223;-72
2023/04/07 02:24:01;;;;;;;8.63;4.60;;;7.30;48.40;;;;;;5073076;28;20280;-72
2023/04/07 02:26:32;;;;;;;7.40;4.63;;;7.20;49.10;;;;;;5071979;28;20222;-72
2023/04/07 02:29:00;;;;;;;7.50;4.07;;;7.20;48.90;;;;;;5071930;28;20190;-72
2023/04/07 02:31:27;;;;;;;6.05;4.80;;;7.20;49.20;;;;;;5071386;28;20190;-72
2023/04/07 02:33:54;;;;;;;5.10;4.20;;;7.20;49.60;;;;;;5071946;28;20190;-72
2023/04/07 02:36:23;;;;;;;5.97;3.92;;;7.30;49.80;;;;;;5072891;28;20602;-72
2023/04/07 02:38:50;;;;;;;6.50;4.18;;;7.30;50.00;;;;;;5071235;28;20203;-72
2023/04/07 02:41:17;;;;;;;6.55;4.63;;;7.30;50.00;;;;;;5071664;28;20213;-72
2023/04/07 02:43:45;;;;;;;6.97;4.55;;;7.30;50.10;;;;;;5072690;28;20588;-72
2023/04/07 02:46:12;;;;;;;6.53;4.47;;;7.30;49.90;;;;;;5071704;28;20197;-72
2023/04/07 02:48:39;;;;;;;8.73;4.75;;;7.20;49.40;;;;;;5072382;28;20189;-72
2023/04/07 02:51:11;;;;;;;6.57;4.22;;;7.10;49.60;;;;;;5070939;28;20178;-72
2023/04/07 02:53:39;;;;;;;5.28;4.30;;;7.10;49.30;;;;;;5072630;28;20225;-72
2023/04/07 02:56:07;;;;;;;6.15;4.38;;;7.10;49.30;;;;;;5071542;28;20229;-72
2023/04/07 02:58:34;;;;;;;8.45;4.75;;;7.00;49.30;;;;;;5072630;28;20259;-72
2023/04/07 03:01:03;;;;;;;6.20;4.15;;;7.00;49.40;;;;;;5071138;28;20563;-72
2023/04/07 03:03:30;;;;;;;5.50;3.70;;;7.10;49.70;;;;;;5072335;28;20251;-72
2023/04/07 03:05:58;;;;;;;5.72;4.57;;;7.10;49.80;;;;;;5075572;28;20591;-72
2023/04/07 03:08:25;;;;;;;7.45;5.07;;;7.20;51.00;;;;;;5076604;28;20182;-72
2023/04/07 03:10:54;;;;;;;5.97;4.45;;;7.10;51.60;;;;;;5075087;28;20225;-72
2023/04/07 03:13:23;;;;;;;7.97;5.10;;;7.10;52.70;;;;;;5076209;28;20697;-72
2023/04/07 03:15:55;;;;;;;8.60;5.60;;;7.00;53.70;;;;;;5075652;28;20201;-73
2023/04/07 03:18:22;;;;;;;6.30;4.88;;;7.00;54.80;;;;;;5076207;28;20185;-72
2023/04/07 03:20:51;;;;;;;6.95;5.07;;;6.90;55.80;;;;;;5074871;28;20307;-72
2023/04/07 03:23:18;;;;;;;7.07;4.65;;;6.80;57.00;;;;;;5075995;28;20288;-72
2023/04/07 03:25:46;;;;;;;8.48;5.13;;;6.80;58.30;;;;;;5075556;28;20272;-72
2023/04/07 03:28:14;;;;;;;9.40;5.25;;;6.70;58.70;;;;;;5076001;28;20200;-72
2023/04/07 03:30:42;;;;;;;9.25;5.47;;;6.70;59.40;;;;;;5075271;28;20652;-72
2023/04/07 03:33:09;;;;;;;8.63;4.82;;;6.50;60.50;;;;;;5076262;28;20194;-72
2023/04/07 03:35:38;;;;;;;7.57;4.90;;;6.60;61.70;;;;;;5076140;28;20220;-72
2023/04/07 03:38:05;;;;;;;7.88;5.60;;;6.50;62.20;;;;;;5075252;28;20358;-73
2023/04/07 03:40:41;;;;;;;8.43;5.80;;;6.50;62.90;;;;;;5075894;28;20217;-72
2023/04/07 03:43:15;;;;;;;8.13;5.32;;;6.40;64.20;;;;;;5076171;28;20196;-72
2023/04/07 03:45:42;;;;;;;7.82;5.38;;;6.30;64.90;;;;;;5076206;28;20242;-72
2023/04/07 03:48:11;;;;;;;6.93;5.00;;;6.30;65.70;;;;;;5075678;28;20233;-72
2023/04/07 03:50:38;;;;;;;8.82;5.47;;;6.40;66.10;;;;;;5075924;28;20193;-72
2023/04/07 03:53:06;;;;;;;10.32;5.70;;;6.40;66.70;;;;;;5074643;28;20190;-73
2023/04/07 03:55:35;;;;;;;8.68;5.22;;;6.40;67.30;;;;;;5075786;28;20198;-72
2023/04/07 03:58:02;;;;;;;8.80;5.70;;;6.40;68.00;;;;;;5074953;28;20292;-72
2023/04/07 04:00:32;;;;;;;7.20;4.72;;;6.40;69.80;;;;;;5075047;28;20218;-72
2023/04/07 04:02:59;;;;;;;8.20;5.03;;;6.40;69.50;;;;;;5075026;28;20185;-72
2023/04/07 04:05:26;;;;;;;10.15;4.90;;;6.40;69.70;;;;;;5075342;28;20185;-72
2023/04/07 04:07:53;;;;;;;7.18;5.45;;;6.40;69.90;;;;;;5074758;28;20186;-72
2023/04/07 04:10:20;;;;;;;9.30;5.20;;;6.30;69.60;;;;;;5075157;28;20222;-72
2023/04/07 04:12:48;;;;;;;8.32;4.95;;;6.30;69.80;;;;;;5074823;28;20356;-72
2023/04/07 04:15:16;;;;;;;8.60;5.22;;;6.30;70.40;;;;;;5074829;28;20190;-72
2023/04/07 04:17:44;;;;;;;10.55;5.80;;;6.30;71.00;;;;;;5075388;28;20200;-73
2023/04/07 04:20:12;;;;;;;9.27;5.82;;;6.30;71.30;;;;;;5075213;28;20210;-73
2023/04/07 04:22:39;;;;;;;8.73;5.55;;;6.30;71.50;;;;;;5074648;28;20624;-72
2023/04/07 04:25:07;;;;;;;8.73;5.07;;;6.30;71.30;;;;;;5074395;28;20185;-72
2023/04/07 04:27:34;;;;;;;10.00;5.75;;;6.30;71.50;;;;;;5075440;28;20198;-72
2023/04/07 04:30:02;;;;;;;9.55;6.60;;;6.30;71.20;;;;;;5075196;28;20280;-72
2023/04/07 04:32:29;;;;;;;10.43;6.05;;;6.40;71.70;;;;;;5075320;28;20244;-72
2023/04/07 04:34:59;;;;;;;9.35;6.35;;;6.40;72.40;;;;;;5074873;28;20236;-72
2023/04/07 04:37:26;;;;;;;9.88;6.70;;;6.40;72.80;;;;;;5053288;28;20506;-72
2023/04/07 04:39:53;;;;;;;8.70;5.45;;;6.40;73.30;;;;;;5054743;28;20209;-72
2023/04/07 04:42:20;;;;;;;9.85;6.18;;;6.40;74.10;;;;;;5073669;28;20209;-73
2023/04/07 04:44:47;;;;;;;7.60;6.15;;;6.40;74.80;;;;;;5074485;28;20225;-73
2023/04/07 04:47:14;;;;;;;7.65;5.88;;;6.50;75.10;;;;;;5073470;28;20193;-73
2023/04/07 04:49:41;;;;;;;8.48;6.05;;;6.40;75.00;;;;;;5075060;28;20215;-72
2023/04/07 04:52:10;;;;;;;9.35;5.10;;;6.40;75.50;;;;;;5074020;28;20556;-72
2023/04/07 04:54:37;;;;;;;8.85;6.10;;;6.40;76.40;;;;;;5074802;28;20190;-72
2023/04/07 04:57:04;;;;;;;9.80;6.10;;;6.50;77.20;;;;;;5073899;28;20186;-72
2023/04/07 04:59:31;;;;;;;8.18;5.60;;;6.40;77.90;;;;;;5074759;28;20217;-72
2023/04/07 05:01:58;;;;;;;13.65;6.57;;;6.50;77.60;;;;;;5074573;28;20223;-72
2023/04/07 05:04:27;;;;;;;8.15;5.85;;;6.40;77.10;;;;;;5074264;28;20243;-72
2023/04/07 05:06:54;;;;;;;7.97;6.20;;;6.40;77.40;;;;;;5072738;28;20540;-72
2023/04/07 05:09:22;;;;;;;9.27;5.70;;;6.40;77.50;;;;;;5072459;28;20253;-72
2023/04/07 05:11:49;;;;;;;7.90;5.55;;;6.40;78.00;;;;;;5074508;28;20244;-72
2023/04/07 05:14:16;;;;;;;11.25;6.80;;;6.40;78.40;;;;;;5072325;28;20215;-72
2023/04/07 05:16:45;;;;;;;11.40;6.03;;;6.40;78.10;;;;;;5074146;28;20185;-72
2023/04/07 05:19:12;;;;;;;11.30;6.30;;;6.40;78.20;;;;;;5074528;28;20193;-72
2023/04/07 05:21:39;;;;;;;12.93;6.53;;;6.30;77.90;;;;;;5073235;28;20217;-72
2023/04/07 05:24:07;;;;;;;8.35;7.45;;;6.40;78.50;;;;;;5073221;28;20190;-72
2023/04/07 05:26:40;;;;;;;10.95;6.13;;;6.40;79.50;;;;;;5072286;28;20932;-73
2023/04/07 05:29:12;;;;;;;9.07;6.72;;;6.40;80.10;;;;;;5073598;28;20193;-72
2023/04/07 05:31:40;;;;;;;9.73;6.10;;;6.40;80.70;;;;;;5072975;28;20239;-72
2023/04/07 05:34:12;;;;;;;9.68;5.95;;;6.50;81.00;;;;;;5064103;28;20210;-72
2023/04/07 05:36:39;;;;;;;13.85;8.07;;;6.50;81.20;;;;;;5069343;28;20213;-72
2023/04/07 05:39:07;;;;;;;14.18;7.55;;;6.50;81.80;;;;;;5072314;28;20608;-72
2023/04/07 05:41:36;;;;;;;11.68;8.90;;;6.50;81.90;;;;;;5073221;28;20311;-72
2023/04/07 05:44:05;;;;;;;14.70;8.88;;;6.50;81.10;;;;;;5073247;28;20197;-72
2023/04/07 05:46:37;;;;;;;9.82;7.00;;;6.40;80.80;;;;;;5073489;28;20194;-72
2023/04/07 05:49:04;;;;;;;10.07;7.22;;;6.30;81.30;;;;;;5073587;28;20276;-72
2023/04/07 05:51:31;;;;;;;9.52;6.47;;;6.30;82.10;;;;;;5072152;28;20740;-72
2023/04/07 05:54:01;;;;;;;9.50;5.88;;;6.30;82.80;;;;;;5070957;28;20193;-72
2023/04/07 05:56:28;;;;;;;10.75;6.88;;;6.40;82.90;;;;;;5073239;28;20190;-72
2023/04/07 05:58:56;;;;;;;12.15;7.90;;;6.50;82.00;;;;;;5072671;28;20196;-72
2023/04/07 06:01:24;;;;;;;8.80;7.22;;;6.50;82.20;;;;;;5073130;28;20260;-72
2023/04/07 06:03:51;;;;;;;10.70;6.05;;;6.50;82.40;;;;;;5072237;28;20193;-72
2023/04/07 06:06:20;;;;;;;11.23;7.20;;;6.60;82.00;;;;;;5073102;28;20640;-72
2023/04/07 06:08:47;;;;;;;10.30;6.75;;;6.60;80.60;;;;;;5071546;28;20213;-72
2023/04/07 06:11:14;;;;;;;8.60;6.70;;;6.70;80.00;;;;;;5073034;28;20190;-72
2023/04/07 06:13:41;;;;;;;8.15;6.38;;;6.70;79.50;;;;;;5072311;28;20239;-73
2023/04/07 06:16:08;;;;;;;12.23;7.18;;;6.70;79.30;;;;;;5072736;28;20197;-72
2023/04/07 06:18:37;;;;;;;10.15;6.85;;;6.80;79.30;;;;;;5072203;28;20200;-72
2023/04/07 06:21:04;;;;;;;10.02;6.55;;;6.90;78.80;;;;;;5072794;28;20267;-72
2023/04/07 06:23:31;;;;;;;15.10;8.77;;;6.90;78.80;;;;;;5072484;28;20216;-72
2023/04/07 06:25:58;;;;;;;13.00;8.93;;;7.00;78.60;;;;;;5069761;28;20259;-71
2023/04/07 06:28:36;;;;;;;11.35;8.68;;;7.10;78.80;;;;;;5067205;28;20273;-73
2023/04/07 06:31:03;;;;;;;9.85;6.75;;;7.20;78.50;;;;;;5070495;28;20225;-72
2023/04/07 06:33:30;;;;;;;9.13;6.72;;;7.30;77.70;;;;;;5069357;28;20608;-73
2023/04/07 06:36:00;;;;;;;8.73;7.50;;;7.40;77.60;;;;;;5070299;28;20280;-73
2023/04/07 06:38:27;;;;;;;11.85;8.40;;;7.50;77.00;;;;;;5070721;28;20198;-72
2023/04/07 06:40:54;;;;;;;10.07;6.88;;;7.70;76.40;;;;;;5070374;28;20213;-72
2023/04/07 06:43:24;;;;;;;8.00;5.90;;;7.80;75.80;;;;;;5068988;28;20258;-73
2023/04/07 06:45:54;;;;;;;22.60;15.93;;;7.90;75.10;;;;;;5069283;28;20197;-72
2023/04/07 06:48:22;;;;;;;12.20;8.32;;;8.00;74.10;;;;;;5069408;28;20232;-72
2023/04/07 06:50:50;;;;;;;8.23;5.95;;;8.10;73.90;;;;;;5069954;28;20205;-72
2023/04/07 06:53:19;;;;;;;10.18;7.40;;;8.20;73.50;;;;;;5065235;28;20648;-72
2023/04/07 06:55:48;;;;;;;7.20;5.80;;;8.30;73.50;;;;;;5069919;28;20251;-72
2023/04/07 06:58:15;;;;;;;9.50;6.20;;;8.30;73.60;;;;;;5070485;28;20185;-71
2023/04/07 07:00:42;;;;;;;8.80;6.82;;;8.40;74.00;;;;;;5070350;28;20185;-73
2023/04/07 07:03:10;;;;;;;9.27;6.80;;;8.40;74.10;;;;;;5068904;28;20717;-72
2023/04/07 07:05:37;;;;;;;11.48;7.78;;;8.50;73.40;;;;;;5070838;28;20240;-72
2023/04/07 07:08:04;;;;;;;11.18;6.78;;;8.50;72.80;;;;;;5065861;28;20351;-72
2023/04/07 07:10:33;;;;;;;9.30;6.95;;;8.60;71.70;;;;;;5066069;28;20225;-72
2023/04/07 07:13:00;;;;;;;7.57;5.70;;;8.60;71.50;;;;;;5070534;28;20250;-72
2023/04/07 07:15:27;;;;;;;8.07;5.88;;;8.70;71.50;;;;;;5070462;28;20205;-72
2023/04/07 07:17:54;;;;;;;8.85;6.32;;;8.80;70.80;;;;;;5069755;28;20247;-73
2023/04/07 07:20:22;;;;;;;8.95;5.90;;;9.00;70.00;;;;;;5070469;28;20225;-73
2023/04/07 07:22:49;;;;;;;8.65;7.60;;;9.10;69.00;;;;;;5070212;28;20230;-72
2023/04/07 07:25:16;;;;;;;8.05;7.10;;;9.30;69.50;;;;;;5070677;28;20593;-72
2023/04/07 07:27:45;;;;;;;7.53;6.45;;;9.50;69.10;;;;;;5069698;28;20190;-72
2023/04/07 07:30:12;;;;;;;13.25;6.95;;;9.60;68.10;;;;;;5067989;28;20190;-72
2023/04/07 07:32:40;;;;;;;9.63;6.28;;;9.80;66.90;;;;;;5069405;28;20196;-72
2023/04/07 07:35:07;;;;;;;7.60;6.20;;;9.90;66.60;;;;;;5069826;28;20202;-72
2023/04/07 07:37:36;;;;;;;9.00;6.60;;;10.10;64.20;;;;;;5069934;28;20189;-72
2023/04/07 07:40:03;;;;;;;12.02;6.68;;;10.20;63.80;;;;;;5069807;28;20270;-72
2023/04/07 07:42:30;;;;;;;10.02;6.15;;;10.40;62.30;;;;;;5068775;28;20707;-72
2023/04/07 07:44:59;;;;;;;10.60;6.85;;;10.50;61.20;;;;;;5069728;28;20236;-73
2023/04/07 07:47:26;;;;;;;9.18;6.55;;;10.60;61.20;;;;;;5065595;28;20218;-72
2023/04/07 07:49:53;;;;;;;10.57;6.63;;;10.80;60.40;;;;;;5070461;28;20202;-73
2023/04/07 07:52:20;;;;;;;8.30;6.70;;;10.90;58.30;;;;;;5072152;28;20259;-73
2023/04/07 07:54:49;;;;;;;8.52;6.50;;;11.10;58.10;;;;;;5073175;28;20193;-73
2023/04/07 07:57:16;;;;;;;9.35;7.00;;;11.40;57.50;;;;;;5072129;28;20276;-72
2023/04/07 07:59:43;;;;;;;7.50;5.70;;;11.80;57.80;;;;;;5073342;28;20292;-72
2023/04/07 08:02:11;;;;;;;7.65;6.70;;;12.20;55.30;;;;;;5072441;28;20933;-72
2023/04/07 08:04:38;;;;;;;7.40;5.32;;;12.60;51.90;;;;;;5072811;28;20195;-73
2023/04/07 08:07:06;;;;;;;6.82;4.93;;;13.00;48.50;;;;;;5072728;28;20193;-72
2023/04/07 08:09:32;;;;;;;8.55;5.47;;;13.20;46.60;;;;;;5072713;28;20257;-72
2023/04/07 08:11:59;;;;;;;7.45;5.93;;;13.50;46.30;;;;;;5072678;28;20593;-72
2023/04/07 08:14:27;;;;;;;5.80;4.80;;;13.80;46.20;;;;;;5072582;28;20274;-73
2023/04/07 08:16:54;;;;;;;6.63;4.95;;;14.30;45.90;;;;;;5072534;28;20194;-73
2023/04/07 08:19:22;;;;;;;6.35;5.20;;;14.70;45.90;;;;;;5072860;28;20201;-73
2023/04/07 08:21:49;;;;;;;6.30;4.82;;;14.90;44.20;;;;;;5072604;28;20287;-73
2023/04/07 08:24:16;;;;;;;7.13;5.77;;;15.20;44.00;;;;;;5068545;28;20189;-73
2023/04/07 08:26:48;;;;;;;6.77;5.90;;;15.40;42.90;;;;;;5072512;28;20440;-72
2023/04/07 08:29:15;;;;;;;6.53;5.03;;;15.60;42.40;;;;;;5072885;28;20436;-72
2023/04/07 08:31:42;;;;;;;6.57;5.70;;;15.90;41.60;;;;;;5071285;28;20433;-73
2023/04/07 08:34:09;;;;;;;6.47;4.90;;;16.10;42.00;;;;;;5072793;28;20444;-73
2023/04/07 08:36:38;;;;;;;8.27;5.40;;;16.30;40.20;;;;;;5072277;28;20522;-73
2023/04/07 08:39:05;;;;;;;7.17;5.40;;;16.30;39.90;;;;;;5067395;28;20436;-73
2023/04/07 08:41:37;;;;;;;6.00;4.67;;;16.40;39.70;;;;;;5068940;28;20526;-73
2023/04/07 08:44:04;;;;;;;6.20;5.50;;;16.60;39.90;;;;;;5070857;28;20505;-73
2023/04/07 08:46:33;;;;;;;5.93;4.50;;;17.00;38.80;;;;;;5069482;28;20439;-73
2023/04/07 08:49:01;;;;;;;5.43;4.60;;;17.90;39.50;;;;;;5070368;28;20440;-73
2023/04/07 08:51:30;;;;;;;6.30;5.60;;;20.60;36.20;;;;;;5071016;28;20436;-73
2023/04/07 08:54:06;;;;;;;6.50;5.17;;;23.90;32.80;;;;;;5068928;28;20498;-73
2023/04/07 08:56:39;;;;;;;6.20;4.53;;;26.20;28.20;;;;;;5070728;28;20538;-74
2023/04/07 08:59:08;;;;;;;6.70;4.77;;;28.70;25.20;;;;;;5071149;28;20447;-73
2023/04/07 09:01:36;;;;;;;6.53;4.53;;;31.30;22.20;;;;;;5069793;28;20487;-74
2023/04/07 09:04:04;;;;;;;4.50;3.67;;;33.20;18.60;;;;;;5070207;28;20440;-74
2023/04/07 09:06:32;;;;;;;5.30;4.47;;;34.30;16.60;;;;;;5070941;28;20506;-74
2023/04/07 09:09:01;;;;;;;5.40;4.13;;;35.30;15.60;;;;;;5071434;28;20471;-74
2023/04/07 09:11:35;;;;;;;4.53;3.90;;;37.00;14.60;;;;;;5070429;28;20444;-75
2023/04/07 09:14:09;;;;;;;5.60;4.20;;;38.30;12.60;;;;;;5068991;28;20457;-74
2023/04/07 09:16:37;;;;;;;5.50;4.00;;;39.50;11.90;;;;;;5070319;28;20797;-75
2023/04/07 09:19:05;;;;;;;5.70;4.70;;;40.50;11.30;;;;;;5071468;28;20455;-74
2023/04/07 09:21:47;;;;;;;5.03;4.53;;;41.20;10.50;;;;;;5068909;28;20965;-74
2023/04/07 09:24:23;;;;;;;4.90;3.70;;;42.00;10.70;;;;;;5070633;28;20471;-74
2023/04/07 09:26:51;;;;;;;4.30;3.53;;;42.60;9.90;;;;;;5069331;28;20467;-73
2023/04/07 09:29:21;;;;;;;4.03;3.60;;;43.20;9.20;;;;;;5070214;28;20444;-72
2023/04/07 09:31:50;;;;;;;5.37;3.67;;;43.80;9.10;;;;;;5067579;28;20513;-73
2023/04/07 09:34:26;;;;;;;5.07;3.43;;;44.60;8.80;;;;;;5068056;28;20440;-73
2023/04/07 09:36:57;;;;;;;4.80;4.20;;;45.20;8.30;;;;;;5063502;28;20996;-72
2023/04/07 09:39:26;;;;;;;5.20;3.50;;;45.50;7.50;;;;;;5068119;28;20452;-73
2023/04/07 09:41:53;;;;;;;4.80;4.07;;;45.60;7.60;;;;;;5070099;28;20440;-72
2023/04/07 09:44:21;;;;;;;4.07;3.67;;;45.70;7.30;;;;;;5068976;28;20489;-72
2023/04/07 09:46:50;;;;;;;3.03;2.60;;;45.70;6.40;;;;;;5068730;28;20432;-72
2023/04/07 09:49:19;;;;;;;5.13;3.37;;;45.70;6.10;;;;;;5070722;28;20860;-73
2023/04/07 09:52:00;;;;;;;6.03;3.50;;;46.10;6.80;;;;;;5069433;28;20562;-73
2023/04/07 09:54:38;;;;;;;4.40;3.10;;;46.20;6.90;;;;;;5067260;28;20439;-73
2023/04/07 09:57:08;;;;;;;4.27;3.37;;;46.70;7.10;;;;;;5065586;28;20823;-72
2023/04/07 09:59:37;;;;;;;4.40;3.30;;;46.90;6.90;;;;;;5068382;28;20452;-72
2023/04/07 10:02:05;;;;;;;6.83;3.57;;;47.20;6.40;;;;;;5070248;28;20444;-73
2023/04/07 10:04:32;;;;;;;4.33;3.50;;;47.40;5.70;;;;;;5066564;28;20440;-73
2023/04/07 10:07:03;;;;;;;4.70;3.50;;;46.90;5.20;;;;;;5067312;28;20448;-72
2023/04/07 10:09:31;;;;;;;4.80;3.20;;;46.30;5.50;;;;;;5068289;28;20478;-72
2023/04/07 10:12:07;;;;;;;5.00;3.47;;;45.80;5.50;;;;;;5069806;28;20476;-72
2023/04/07 10:14:37;;;;;;;6.33;2.93;;;45.60;5.50;;;;;;5069671;28;20447;-72
2023/04/07 10:17:05;;;;;;;6.10;2.70;;;45.50;5.90;;;;;;5069899;28;20443;-73
2023/04/07 10:19:34;;;;;;;3.20;2.50;;;45.20;6.10;;;;;;5066456;28;20805;-73
2023/04/07 10:22:06;;;;;;;6.93;3.47;;;45.10;6.80;;;;;;5070262;28;20560;-73
2023/04/07 10:24:49;;;;;;;4.77;3.90;;;45.30;5.90;;;;;;5068855;28;20436;-73
2023/04/07 10:27:36;;;;;;;4.30;3.07;;;45.20;6.00;;;;;;5060594;28;20439;-73
2023/04/07 10:30:13;;;;;;;4.43;2.80;;;44.90;5.90;;;;;;5061091;28;20444;-73
2023/04/07 10:32:47;;;;;;;4.20;2.30;;;44.80;5.60;;;;;;5062166;28;20472;-74
2023/04/07 10:35:19;;;;;;;3.27;2.43;;;44.80;6.90;;;;;;5068335;28;20854;-74
2023/04/07 10:38:18;;;;;;;4.57;3.50;;;45.20;6.50;;;;;;5065679;28;20767;-74
2023/04/07 10:40:48;;;;;;;5.03;3.40;;;45.60;5.40;;;;;;4978478;28;20443;-74
2023/04/07 10:43:39;;;;;;;3.50;3.13;;;46.00;5.40;;;;;;5046281;28;20448;-74
2023/04/07 10:46:07;;;;;;;3.40;2.97;;;46.20;5.90;;;;;;5065464;28;21392;-74
2023/04/07 10:48:40;;;;;;;4.07;2.83;;;46.00;5.80;;;;;;5068539;28;20445;-73
2023/04/07 10:51:19;;;;;;;4.63;3.63;;;44.10;6.20;;;;;;5067955;28;20479;-73
2023/04/07 10:54:25;;;;;;;4.27;3.33;;;43.50;6.00;;;;;;5066731;28;20574;-73
2023/04/07 10:57:09;;;;;;;3.70;2.90;;;;;;;;;;5062797;28;20440;-73
2023/04/07 10:59:39;;;;;;;3.60;3.10;;;;;;;;;;5065832;28;20435;-73
2023/04/07 11:02:26;;;;;;;4.40;3.30;;;;;;;;;;5063754;28;20447;-74
2023/04/07 11:05:03;;;;;;;4.50;3.43;;;;;;;;;;5057262;28;20443;-74
2023/04/07 11:07:49;;;;;;;4.40;3.40;;;42.30;7.10;;;;;;5067418;28;20459;-72
2023/04/07 11:10:18;;;;;;;4.53;3.30;;;28.30;14.40;;;;;;5067497;28;20475;-72
2023/04/07 11:13:02;;;;;;;4.43;3.17;;;26.60;16.50;;;;;;5067980;28;20531;-72
2023/04/07 11:15:32;;;;;;;4.80;3.47;;;25.10;17.90;;;;;;5066116;28;20455;-72
2023/04/07 11:18:17;;;;;;;5.70;3.53;;;24.00;18.70;;;;;;5068300;28;20444;-72
2023/04/07 11:20:49;;;;;;;4.27;3.33;;;23.00;19.40;;;;;;5061893;28;20930;-71
2023/04/07 11:23:18;;;;;;;4.30;3.40;;;22.20;19.90;;;;;;5068748;28;20451;-72
2023/04/07 11:25:47;;;;;;;5.23;3.70;;;21.50;21.10;;;;;;5065403;28;20435;-72
2023/04/07 11:28:15;;;;;;;4.40;3.23;;;20.90;21.90;;;;;;5069407;28;20471;-71
2023/04/07 11:30:50;;;;;;;4.00;2.87;;;20.50;22.50;;;;;;5069753;28;20489;-73
2023/04/07 11:33:20;;;;;;;4.40;3.30;;;20.10;22.90;;;;;;5067666;28;20491;-72
2023/04/07 11:35:54;;;;;;;5.20;4.07;;;19.70;23.30;;;;;;5071049;28;20441;-72
2023/04/07 11:38:22;;;;;;;5.20;3.77;;;19.40;23.50;;;;;;5067329;28;20938;-73
2023/04/07 11:40:50;;;;;;;4.97;3.50;;;19.10;23.90;;;;;;5070796;28;20444;-72
2023/04/07 11:43:19;;;;;;;4.87;3.50;;;18.80;25.20;;;;;;5067974;28;20541;-73
2023/04/07 11:46:06;;;;;;;6.90;4.53;;;18.50;25.10;;;;;;5066984;28;20891;-72
2023/04/07 11:48:35;;;;;;;5.33;3.87;;;18.20;25.60;;;;;;5070855;28;20442;-73
2023/04/07 11:51:06;;;;;;;4.83;3.70;;;18.00;26.50;;;;;;5069379;28;20444;-72
2023/04/07 11:53:36;;;;;;;5.33;2.90;;;17.80;27.00;;;;;;5070865;28;20440;-72
2023/04/07 11:56:08;;;;;;;5.53;3.57;;;17.60;26.70;;;;;;5070605;28;20435;-72
2023/04/07 11:58:37;;;;;;;6.03;4.27;;;17.50;27.10;;;;;;5070330;28;20942;-72
2023/04/07 12:01:08;;;;;;;5.17;3.77;;;17.30;27.20;;;;;;5070877;28;20447;-72
2023/04/07 12:03:37;;;;;;;5.60;4.13;;;17.20;26.90;;;;;;5068127;28;20479;-72
2023/04/07 12:06:05;;;;;;;6.40;3.87;;;17.00;27.30;;;;;;5070412;28;20914;-72
2023/04/07 12:08:40;;;;;;;5.87;3.83;;;16.90;27.60;;;;;;5071010;28;20455;-72
2023/04/07 12:11:09;;;;;;;9.13;4.60;;;16.70;27.90;;;;;;5053413;28;20444;-72
2023/04/07 12:13:40;;;;;;;5.07;4.00;;;16.60;28.50;;;;;;5053987;28;20476;-71
2023/04/07 12:16:12;;;;;;;5.93;3.73;;;16.50;28.70;;;;;;5054975;28;20528;-73
2023/04/07 12:18:39;;;;;;;5.20;4.10;;;16.40;28.80;;;;;;5054321;28;20449;-72
2023/04/07 12:21:07;;;;;;;5.10;3.07;;;16.30;29.10;;;;;;5052362;28;20451;-72
2023/04/07 12:23:34;;;;;;;5.40;3.70;;;16.20;28.80;;;;;;5049336;28;20485;-72
2023/04/07 12:26:01;;;;;;;4.50;3.40;;;16.10;29.60;;;;;;5056322;28;20775;-72
2023/04/07 12:28:29;;;;;;;6.07;3.17;;;16.00;29.50;;;;;;5044603;28;20535;-72
2023/04/07 12:30:59;;;;;;;4.73;3.17;;;16.00;29.50;;;;;;5055064;28;20520;-72
2023/04/07 12:33:28;;;;;;;4.33;3.67;;;16.00;29.50;;;;;;5055324;28;20518;-72
2023/04/07 12:35:57;;;;;;;4.63;3.43;;;15.90;29.90;;;;;;5045604;28;20445;-72
2023/04/07 12:38:25;;;;;;;5.43;3.60;;;15.80;29.60;;;;;;5049573;28;20932;-72
2023/04/07 12:40:53;;;;;;;5.93;3.73;;;15.80;29.60;;;;;;5052282;28;20448;-72
2023/04/07 12:43:21;;;;;;;4.07;3.13;;;15.80;29.50;;;;;;5045771;28;21093;-72
2023/04/07 12:45:48;;;;;;;7.40;3.67;;;15.80;29.90;;;;;;5059206;28;20440;-72
2023/04/07 12:48:17;;;;;;;4.93;3.80;;;15.80;30.00;;;;;;5059919;28;20453;-71
2023/04/07 12:50:46;;;;;;;4.87;3.47;;;15.80;30.70;;;;;;5051047;28;20813;-72
2023/04/07 12:53:13;;;;;;;6.53;4.17;;;15.80;31.00;;;;;;5055895;28;20490;-72
2023/04/07 12:55:40;;;;;;;5.57;3.90;;;15.80;31.60;;;;;;5045931;28;20464;-72
2023/04/07 12:58:08;;;;;;;5.37;4.00;;;15.80;31.50;;;;;;5051528;28;20904;-72
2023/04/07 13:00:35;;;;;;;6.53;3.87;;;15.80;31.70;;;;;;5051952;28;20449;-72
2023/04/07 13:03:02;;;;;;;4.13;2.83;;;15.80;31.60;;;;;;5045201;28;20571;-72
2023/04/07 13:05:29;;;;;;;4.63;3.73;;;15.90;31.90;;;;;;5052841;28;20532;-72